Terminal Aerodrome Forecast
Issued by NWS

Home | Current Version | Previous Version | Text Only | Print | Product List | Glossary On
Versions: 1 2 3 4 5 6 7 8 9 10 11 12 13 14 15 16 17
000
FTUS45 KTWC 181137
TAFOLS
TAF
KOLS 181137Z 1812/1912 12005KT P6SM BKN050 OVC070
      TEMPO 1812/1814 3SM BR BKN025
     FM181900 30005KT P6SM SCT070 BKN100
     FM190100 VRB04KT P6SM SCT120=

USA.gov is the U.S. government's official web portal to all federal, state and local government web resources and services.